sensor_id;sensor_type;location;lat;lon;timestamp;P1;durP1;ratioP1;P2;durP2;ratioP2
53646;SDS011;39550;52.230;5.194;2023-09-19T00:00:59;5.95;;;2.30;;
53646;SDS011;39550;52.230;5.194;2023-09-19T00:03:24;5.03;;;2.60;;
53646;SDS011;39550;52.230;5.194;2023-09-19T00:05:53;5.10;;;2.50;;
53646;SDS011;39550;52.230;5.194;2023-09-19T00:08:20;5.22;;;2.28;;
53646;SDS011;39550;52.230;5.194;2023-09-19T00:10:52;5.75;;;2.75;;
53646;SDS011;39550;52.230;5.194;2023-09-19T00:13:19;5.30;;;2.40;;
53646;SDS011;39550;52.230;5.194;2023-09-19T00:15:46;6.45;;;2.78;;
53646;SDS011;39550;52.230;5.194;2023-09-19T00:18:16;7.65;;;2.55;;
53646;SDS011;39550;52.230;5.194;2023-09-19T00:20:43;6.18;;;2.40;;
53646;SDS011;39550;52.230;5.194;2023-09-19T00:23:12;10.35;;;2.97;;
53646;SDS011;39550;52.230;5.194;2023-09-19T00:25:38;5.90;;;2.55;;
53646;SDS011;39550;52.230;5.194;2023-09-19T00:28:05;5.18;;;2.40;;
53646;SDS011;39550;52.230;5.194;2023-09-19T00:30:32;5.47;;;2.33;;
53646;SDS011;39550;52.230;5.194;2023-09-19T00:32:58;5.32;;;2.28;;
53646;SDS011;39550;52.230;5.194;2023-09-19T00:35:25;5.38;;;2.60;;
53646;SDS011;39550;52.230;5.194;2023-09-19T00:37:51;5.53;;;2.95;;
53646;SDS011;39550;52.230;5.194;2023-09-19T00:40:17;5.95;;;2.55;;
53646;SDS011;39550;52.230;5.194;2023-09-19T00:42:43;7.00;;;2.50;;
53646;SDS011;39550;52.230;5.194;2023-09-19T00:45:09;6.32;;;2.97;;
53646;SDS011;39550;52.230;5.194;2023-09-19T00:50:15;6.32;;;3.08;;
53646;SDS011;39550;52.230;5.194;2023-09-19T00:52:42;5.93;;;2.95;;
53646;SDS011;39550;52.230;5.194;2023-09-19T00:55:09;6.25;;;2.33;;
53646;SDS011;39550;52.230;5.194;2023-09-19T00:57:36;7.40;;;2.42;;
53646;SDS011;39550;52.230;5.194;2023-09-19T01:00:06;4.88;;;2.25;;
53646;SDS011;39550;52.230;5.194;2023-09-19T01:02:37;6.40;;;2.92;;
53646;SDS011;39550;52.230;5.194;2023-09-19T01:05:02;7.00;;;2.50;;
53646;SDS011;39550;52.230;5.194;2023-09-19T01:07:30;7.22;;;2.47;;
53646;SDS011;39550;52.230;5.194;2023-09-19T01:09:58;5.10;;;2.40;;
53646;SDS011;39550;52.230;5.194;2023-09-19T01:12:30;4.60;;;2.75;;
53646;SDS011;39550;52.230;5.194;2023-09-19T01:20:57;5.30;;;2.55;;
53646;SDS011;39550;52.230;5.194;2023-09-19T01:29:39;8.48;;;3.03;;
53646;SDS011;39550;52.230;5.194;2023-09-19T01:32:10;4.95;;;2.20;;
53646;SDS011;39550;52.230;5.194;2023-09-19T01:34:46;7.35;;;3.20;;
53646;SDS011;39550;52.230;5.194;2023-09-19T01:37:12;5.93;;;2.30;;
53646;SDS011;39550;52.230;5.194;2023-09-19T01:39:39;5.05;;;2.50;;
53646;SDS011;39550;52.230;5.194;2023-09-19T01:42:15;4.38;;;2.20;;
53646;SDS011;39550;52.230;5.194;2023-09-19T01:47:54;4.75;;;2.40;;
53646;SDS011;39550;52.230;5.194;2023-09-19T01:52:59;4.25;;;2.30;;
53646;SDS011;39550;52.230;5.194;2023-09-19T01:55:36;5.47;;;2.25;;
53646;SDS011;39550;52.230;5.194;2023-09-19T01:58:08;5.18;;;2.20;;
53646;SDS011;39550;52.230;5.194;2023-09-19T02:00:42;5.15;;;2.42;;
53646;SDS011;39550;52.230;5.194;2023-09-19T02:03:11;4.18;;;2.35;;
53646;SDS011;39550;52.230;5.194;2023-09-19T02:05:38;5.15;;;2.20;;
53646;SDS011;39550;52.230;5.194;2023-09-19T02:08:04;5.53;;;2.35;;
53646;SDS011;39550;52.230;5.194;2023-09-19T02:10:30;4.57;;;2.33;;
53646;SDS011;39550;52.230;5.194;2023-09-19T02:12:56;5.57;;;2.50;;
53646;SDS011;39550;52.230;5.194;2023-09-19T02:15:21;4.78;;;2.30;;
53646;SDS011;39550;52.230;5.194;2023-09-19T02:17:47;4.35;;;2.40;;
53646;SDS011;39550;52.230;5.194;2023-09-19T02:20:12;5.30;;;2.20;;
53646;SDS011;39550;52.230;5.194;2023-09-19T02:22:42;5.40;;;2.30;;
53646;SDS011;39550;52.230;5.194;2023-09-19T02:25:07;6.72;;;2.70;;
53646;SDS011;39550;52.230;5.194;2023-09-19T02:27:33;6.35;;;1.95;;
53646;SDS011;39550;52.230;5.194;2023-09-19T02:29:59;6.22;;;2.40;;
53646;SDS011;39550;52.230;5.194;2023-09-19T02:34:55;4.43;;;2.00;;
53646;SDS011;39550;52.230;5.194;2023-09-19T02:37:21;4.78;;;2.50;;
53646;SDS011;39550;52.230;5.194;2023-09-19T02:39:46;5.70;;;2.40;;
53646;SDS011;39550;52.230;5.194;2023-09-19T02:42:12;5.10;;;2.38;;
53646;SDS011;39550;52.230;5.194;2023-09-19T02:44:37;5.18;;;2.50;;
53646;SDS011;39550;52.230;5.194;2023-09-19T02:47:03;5.80;;;2.58;;
53646;SDS011;39550;52.230;5.194;2023-09-19T02:49:29;5.25;;;2.78;;
53646;SDS011;39550;52.230;5.194;2023-09-19T02:51:54;7.22;;;2.30;;
53646;SDS011;39550;52.230;5.194;2023-09-19T02:54:20;5.43;;;2.58;;
53646;SDS011;39550;52.230;5.194;2023-09-19T02:56:46;5.57;;;2.38;;
53646;SDS011;39550;52.230;5.194;2023-09-19T02:59:12;4.60;;;2.13;;
53646;SDS011;39550;52.230;5.194;2023-09-19T03:01:37;8.15;;;2.50;;
53646;SDS011;39550;52.230;5.194;2023-09-19T03:04:04;6.63;;;2.60;;
53646;SDS011;39550;52.230;5.194;2023-09-19T03:06:33;6.75;;;2.58;;
53646;SDS011;39550;52.230;5.194;2023-09-19T03:08:59;4.28;;;2.45;;
53646;SDS011;39550;52.230;5.194;2023-09-19T03:11:25;5.78;;;2.75;;
53646;SDS011;39550;52.230;5.194;2023-09-19T03:13:53;5.18;;;2.30;;
53646;SDS011;39550;52.230;5.194;2023-09-19T03:16:19;4.90;;;2.35;;
53646;SDS011;39550;52.230;5.194;2023-09-19T03:18:46;6.10;;;2.85;;
53646;SDS011;39550;52.230;5.194;2023-09-19T03:21:14;5.13;;;2.40;;
53646;SDS011;39550;52.230;5.194;2023-09-19T03:23:40;7.72;;;3.08;;
53646;SDS011;39550;52.230;5.194;2023-09-19T03:26:06;4.50;;;2.40;;
53646;SDS011;39550;52.230;5.194;2023-09-19T03:28:33;6.22;;;2.60;;
53646;SDS011;39550;52.230;5.194;2023-09-19T03:31:00;6.47;;;2.40;;
53646;SDS011;39550;52.230;5.194;2023-09-19T03:33:27;5.85;;;2.75;;
53646;SDS011;39550;52.230;5.194;2023-09-19T03:35:52;5.75;;;2.45;;
53646;SDS011;39550;52.230;5.194;2023-09-19T03:38:19;6.53;;;2.70;;
53646;SDS011;39550;52.230;5.194;2023-09-19T03:40:44;5.72;;;2.55;;
53646;SDS011;39550;52.230;5.194;2023-09-19T03:43:10;5.90;;;2.58;;
53646;SDS011;39550;52.230;5.194;2023-09-19T03:45:36;6.47;;;2.50;;
53646;SDS011;39550;52.230;5.194;2023-09-19T03:48:08;5.00;;;2.50;;
53646;SDS011;39550;52.230;5.194;2023-09-19T03:50:34;5.75;;;2.67;;
53646;SDS011;39550;52.230;5.194;2023-09-19T03:53:00;6.53;;;2.65;;
53646;SDS011;39550;52.230;5.194;2023-09-19T03:55:25;4.93;;;2.83;;
53646;SDS011;39550;52.230;5.194;2023-09-19T03:57:52;5.75;;;2.63;;
53646;SDS011;39550;52.230;5.194;2023-09-19T04:00:18;5.18;;;2.58;;
53646;SDS011;39550;52.230;5.194;2023-09-19T04:02:46;11.00;;;3.13;;
53646;SDS011;39550;52.230;5.194;2023-09-19T04:05:11;6.63;;;2.80;;
53646;SDS011;39550;52.230;5.194;2023-09-19T04:07:37;10.52;;;3.35;;
53646;SDS011;39550;52.230;5.194;2023-09-19T04:10:03;7.78;;;3.08;;
53646;SDS011;39550;52.230;5.194;2023-09-19T04:12:28;10.30;;;3.38;;
53646;SDS011;39550;52.230;5.194;2023-09-19T04:14:54;9.57;;;3.10;;
53646;SDS011;39550;52.230;5.194;2023-09-19T04:17:19;8.10;;;2.53;;
53646;SDS011;39550;52.230;5.194;2023-09-19T04:19:45;8.60;;;2.85;;
53646;SDS011;39550;52.230;5.194;2023-09-19T04:22:11;5.88;;;2.70;;
53646;SDS011;39550;52.230;5.194;2023-09-19T04:24:37;6.95;;;2.70;;
53646;SDS011;39550;52.230;5.194;2023-09-19T04:27:03;6.13;;;3.20;;
53646;SDS011;39550;52.230;5.194;2023-09-19T04:29:29;7.75;;;3.00;;
53646;SDS011;39550;52.230;5.194;2023-09-19T04:31:55;7.25;;;2.80;;
53646;SDS011;39550;52.230;5.194;2023-09-19T04:34:31;7.00;;;2.92;;
53646;SDS011;39550;52.230;5.194;2023-09-19T04:36:56;8.07;;;2.92;;
53646;SDS011;39550;52.230;5.194;2023-09-19T04:39:25;9.02;;;2.47;;
53646;SDS011;39550;52.230;5.194;2023-09-19T04:41:53;5.38;;;2.70;;
53646;SDS011;39550;52.230;5.194;2023-09-19T04:44:22;8.40;;;3.30;;
53646;SDS011;39550;52.230;5.194;2023-09-19T04:46:48;7.68;;;2.72;;
53646;SDS011;39550;52.230;5.194;2023-09-19T04:49:13;9.00;;;2.90;;
53646;SDS011;39550;52.230;5.194;2023-09-19T04:51:39;7.88;;;3.28;;
53646;SDS011;39550;52.230;5.194;2023-09-19T04:54:05;9.68;;;3.05;;
53646;SDS011;39550;52.230;5.194;2023-09-19T04:56:31;6.65;;;2.72;;
53646;SDS011;39550;52.230;5.194;2023-09-19T04:58:57;5.00;;;2.42;;
53646;SDS011;39550;52.230;5.194;2023-09-19T05:01:26;5.97;;;2.90;;
53646;SDS011;39550;52.230;5.194;2023-09-19T05:03:52;7.93;;;3.17;;
53646;SDS011;39550;52.230;5.194;2023-09-19T05:06:18;6.20;;;2.75;;
53646;SDS011;39550;52.230;5.194;2023-09-19T05:08:46;6.50;;;3.05;;
53646;SDS011;39550;52.230;5.194;2023-09-19T05:11:15;11.30;;;3.25;;
53646;SDS011;39550;52.230;5.194;2023-09-19T05:13:40;7.90;;;2.85;;
53646;SDS011;39550;52.230;5.194;2023-09-19T05:16:06;7.30;;;2.88;;
53646;SDS011;39550;52.230;5.194;2023-09-19T05:18:36;5.40;;;2.90;;
53646;SDS011;39550;52.230;5.194;2023-09-19T05:21:02;6.88;;;2.95;;
53646;SDS011;39550;52.230;5.194;2023-09-19T05:23:28;7.63;;;2.95;;
53646;SDS011;39550;52.230;5.194;2023-09-19T05:25:53;6.30;;;3.05;;
53646;SDS011;39550;52.230;5.194;2023-09-19T05:28:19;7.35;;;2.90;;
53646;SDS011;39550;52.230;5.194;2023-09-19T05:30:45;8.80;;;3.00;;
53646;SDS011;39550;52.230;5.194;2023-09-19T05:33:11;5.15;;;2.40;;
53646;SDS011;39550;52.230;5.194;2023-09-19T05:35:37;7.65;;;2.85;;
53646;SDS011;39550;52.230;5.194;2023-09-19T05:38:04;7.25;;;2.67;;
53646;SDS011;39550;52.230;5.194;2023-09-19T05:40:33;8.13;;;2.72;;
53646;SDS011;39550;52.230;5.194;2023-09-19T05:43:00;8.45;;;2.65;;
53646;SDS011;39550;52.230;5.194;2023-09-19T05:45:26;10.63;;;3.58;;
53646;SDS011;39550;52.230;5.194;2023-09-19T05:47:52;8.00;;;3.00;;
53646;SDS011;39550;52.230;5.194;2023-09-19T05:50:26;7.43;;;3.00;;
53646;SDS011;39550;52.230;5.194;2023-09-19T05:52:52;6.60;;;2.92;;
53646;SDS011;39550;52.230;5.194;2023-09-19T05:55:18;9.02;;;2.90;;
53646;SDS011;39550;52.230;5.194;2023-09-19T05:57:50;6.43;;;2.70;;
53646;SDS011;39550;52.230;5.194;2023-09-19T06:00:17;9.15;;;3.03;;
53646;SDS011;39550;52.230;5.194;2023-09-19T06:02:54;5.18;;;2.60;;
53646;SDS011;39550;52.230;5.194;2023-09-19T06:05:20;7.88;;;3.05;;
53646;SDS011;39550;52.230;5.194;2023-09-19T06:07:46;7.25;;;2.60;;
53646;SDS011;39550;52.230;5.194;2023-09-19T06:10:12;6.22;;;2.72;;
53646;SDS011;39550;52.230;5.194;2023-09-19T06:12:40;8.73;;;2.97;;
53646;SDS011;39550;52.230;5.194;2023-09-19T06:15:10;6.28;;;2.72;;
53646;SDS011;39550;52.230;5.194;2023-09-19T06:17:47;6.80;;;2.95;;
53646;SDS011;39550;52.230;5.194;2023-09-19T06:20:24;12.13;;;3.30;;
53646;SDS011;39550;52.230;5.194;2023-09-19T06:22:51;5.22;;;2.70;;
53646;SDS011;39550;52.230;5.194;2023-09-19T06:25:17;6.32;;;3.00;;
53646;SDS011;39550;52.230;5.194;2023-09-19T06:27:48;14.50;;;3.50;;
53646;SDS011;39550;52.230;5.194;2023-09-19T06:30:17;11.05;;;3.25;;
53646;SDS011;39550;52.230;5.194;2023-09-19T06:32:43;10.68;;;3.20;;
53646;SDS011;39550;52.230;5.194;2023-09-19T06:35:12;8.40;;;3.22;;
53646;SDS011;39550;52.230;5.194;2023-09-19T06:37:39;8.68;;;3.33;;
53646;SDS011;39550;52.230;5.194;2023-09-19T06:40:11;7.93;;;3.42;;
53646;SDS011;39550;52.230;5.194;2023-09-19T06:42:42;8.00;;;2.83;;
53646;SDS011;39550;52.230;5.194;2023-09-19T06:45:10;11.70;;;3.55;;
53646;SDS011;39550;52.230;5.194;2023-09-19T06:47:38;9.52;;;3.30;;
53646;SDS011;39550;52.230;5.194;2023-09-19T06:50:05;8.63;;;3.30;;
53646;SDS011;39550;52.230;5.194;2023-09-19T06:52:34;6.70;;;2.80;;
53646;SDS011;39550;52.230;5.194;2023-09-19T06:55:00;6.65;;;3.13;;
53646;SDS011;39550;52.230;5.194;2023-09-19T06:57:28;8.95;;;2.92;;
53646;SDS011;39550;52.230;5.194;2023-09-19T06:59:55;7.57;;;3.20;;
53646;SDS011;39550;52.230;5.194;2023-09-19T07:02:21;12.30;;;3.85;;
53646;SDS011;39550;52.230;5.194;2023-09-19T07:04:47;7.35;;;3.00;;
53646;SDS011;39550;52.230;5.194;2023-09-19T07:07:12;8.00;;;2.83;;
53646;SDS011;39550;52.230;5.194;2023-09-19T07:09:39;6.03;;;2.75;;
53646;SDS011;39550;52.230;5.194;2023-09-19T07:12:05;8.48;;;3.53;;
53646;SDS011;39550;52.230;5.194;2023-09-19T07:14:30;9.38;;;3.10;;
53646;SDS011;39550;52.230;5.194;2023-09-19T07:16:56;7.45;;;2.70;;
53646;SDS011;39550;52.230;5.194;2023-09-19T07:19:22;8.40;;;2.92;;
53646;SDS011;39550;52.230;5.194;2023-09-19T07:21:47;9.18;;;3.25;;
53646;SDS011;39550;52.230;5.194;2023-09-19T07:24:15;8.30;;;3.13;;
53646;SDS011;39550;52.230;5.194;2023-09-19T07:26:40;11.82;;;3.10;;
53646;SDS011;39550;52.230;5.194;2023-09-19T07:29:06;6.50;;;3.25;;
53646;SDS011;39550;52.230;5.194;2023-09-19T07:31:32;9.35;;;3.65;;
53646;SDS011;39550;52.230;5.194;2023-09-19T07:33:57;7.82;;;3.13;;
53646;SDS011;39550;52.230;5.194;2023-09-19T07:36:23;7.03;;;2.95;;
53646;SDS011;39550;52.230;5.194;2023-09-19T07:38:49;7.50;;;3.10;;
53646;SDS011;39550;52.230;5.194;2023-09-19T07:41:15;9.18;;;3.25;;
53646;SDS011;39550;52.230;5.194;2023-09-19T07:43:41;5.50;;;2.83;;
53646;SDS011;39550;52.230;5.194;2023-09-19T07:46:07;7.53;;;3.00;;
53646;SDS011;39550;52.230;5.194;2023-09-19T07:48:36;8.52;;;3.20;;
53646;SDS011;39550;52.230;5.194;2023-09-19T07:51:06;6.30;;;3.20;;
53646;SDS011;39550;52.230;5.194;2023-09-19T07:53:34;12.35;;;3.88;;
53646;SDS011;39550;52.230;5.194;2023-09-19T07:56:03;8.55;;;3.20;;
53646;SDS011;39550;52.230;5.194;2023-09-19T07:58:30;9.32;;;3.10;;
53646;SDS011;39550;52.230;5.194;2023-09-19T08:00:56;6.93;;;2.97;;
53646;SDS011;39550;52.230;5.194;2023-09-19T08:03:27;7.95;;;3.38;;
53646;SDS011;39550;52.230;5.194;2023-09-19T08:05:53;7.65;;;3.25;;
53646;SDS011;39550;52.230;5.194;2023-09-19T08:10:52;7.13;;;3.15;;
53646;SDS011;39550;52.230;5.194;2023-09-19T08:13:18;8.80;;;3.17;;
53646;SDS011;39550;52.230;5.194;2023-09-19T08:15:44;10.07;;;3.17;;
53646;SDS011;39550;52.230;5.194;2023-09-19T08:18:10;8.23;;;3.58;;
53646;SDS011;39550;52.230;5.194;2023-09-19T08:20:38;9.32;;;3.83;;
53646;SDS011;39550;52.230;5.194;2023-09-19T08:23:07;8.02;;;3.08;;
53646;SDS011;39550;52.230;5.194;2023-09-19T08:25:33;7.90;;;3.88;;
53646;SDS011;39550;52.230;5.194;2023-09-19T08:27:59;12.55;;;3.70;;
53646;SDS011;39550;52.230;5.194;2023-09-19T08:30:28;8.75;;;3.38;;
53646;SDS011;39550;52.230;5.194;2023-09-19T08:32:58;8.13;;;2.88;;
53646;SDS011;39550;52.230;5.194;2023-09-19T08:35:24;8.02;;;3.17;;
53646;SDS011;39550;52.230;5.194;2023-09-19T08:37:50;9.57;;;3.42;;
53646;SDS011;39550;52.230;5.194;2023-09-19T08:40:16;7.75;;;3.33;;
53646;SDS011;39550;52.230;5.194;2023-09-19T08:42:52;7.10;;;3.60;;
53646;SDS011;39550;52.230;5.194;2023-09-19T08:45:22;11.63;;;3.55;;
53646;SDS011;39550;52.230;5.194;2023-09-19T08:50:52;8.20;;;3.53;;
53646;SDS011;39550;52.230;5.194;2023-09-19T08:56:12;7.65;;;3.50;;
53646;SDS011;39550;52.230;5.194;2023-09-19T08:58:46;8.00;;;3.65;;
53646;SDS011;39550;52.230;5.194;2023-09-19T09:01:16;11.15;;;3.53;;
53646;SDS011;39550;52.230;5.194;2023-09-19T09:03:49;10.15;;;3.80;;
53646;SDS011;39550;52.230;5.194;2023-09-19T09:06:17;8.60;;;3.15;;
53646;SDS011;39550;52.230;5.194;2023-09-19T09:08:45;8.15;;;3.30;;
53646;SDS011;39550;52.230;5.194;2023-09-19T09:11:13;8.02;;;3.40;;
53646;SDS011;39550;52.230;5.194;2023-09-19T09:13:40;7.05;;;3.05;;
53646;SDS011;39550;52.230;5.194;2023-09-19T09:16:06;11.27;;;3.60;;
53646;SDS011;39550;52.230;5.194;2023-09-19T09:18:34;12.03;;;3.53;;
53646;SDS011;39550;52.230;5.194;2023-09-19T09:21:00;9.75;;;3.55;;
53646;SDS011;39550;52.230;5.194;2023-09-19T09:23:28;9.45;;;3.50;;
53646;SDS011;39550;52.230;5.194;2023-09-19T09:25:55;13.93;;;3.72;;
53646;SDS011;39550;52.230;5.194;2023-09-19T09:28:24;9.57;;;3.05;;
53646;SDS011;39550;52.230;5.194;2023-09-19T09:30:51;9.32;;;3.80;;
53646;SDS011;39550;52.230;5.194;2023-09-19T09:33:17;10.27;;;3.72;;
53646;SDS011;39550;52.230;5.194;2023-09-19T09:35:53;10.13;;;3.53;;
53646;SDS011;39550;52.230;5.194;2023-09-19T09:41:10;9.55;;;3.95;;
53646;SDS011;39550;52.230;5.194;2023-09-19T09:43:40;8.50;;;3.60;;
53646;SDS011;39550;52.230;5.194;2023-09-19T09:51:38;8.38;;;3.40;;
53646;SDS011;39550;52.230;5.194;2023-09-19T09:54:13;7.97;;;3.38;;
53646;SDS011;39550;52.230;5.194;2023-09-19T09:59:49;8.07;;;3.30;;
53646;SDS011;39550;52.230;5.194;2023-09-19T10:02:29;7.38;;;3.10;;
53646;SDS011;39550;52.230;5.194;2023-09-19T10:05:10;8.60;;;3.20;;
53646;SDS011;39550;52.230;5.194;2023-09-19T10:07:53;8.27;;;3.15;;
53646;SDS011;39550;52.230;5.194;2023-09-19T10:10:31;8.80;;;3.25;;
53646;SDS011;39550;52.230;5.194;2023-09-19T10:13:08;9.77;;;3.88;;
53646;SDS011;39550;52.230;5.194;2023-09-19T10:15:37;5.65;;;2.90;;
53646;SDS011;39550;52.230;5.194;2023-09-19T10:18:06;9.90;;;3.50;;
53646;SDS011;39550;52.230;5.194;2023-09-19T10:20:36;8.15;;;3.53;;
53646;SDS011;39550;52.230;5.194;2023-09-19T10:23:04;12.27;;;4.03;;
53646;SDS011;39550;52.230;5.194;2023-09-19T10:25:47;6.88;;;3.53;;
53646;SDS011;39550;52.230;5.194;2023-09-19T10:28:14;9.15;;;3.60;;
53646;SDS011;39550;52.230;5.194;2023-09-19T10:30:41;8.77;;;3.05;;
53646;SDS011;39550;52.230;5.194;2023-09-19T10:33:12;10.70;;;3.20;;
53646;SDS011;39550;52.230;5.194;2023-09-19T10:35:41;10.00;;;3.40;;
53646;SDS011;39550;52.230;5.194;2023-09-19T10:38:17;8.00;;;3.08;;
53646;SDS011;39550;52.230;5.194;2023-09-19T10:40:50;8.55;;;3.17;;
53646;SDS011;39550;52.230;5.194;2023-09-19T10:43:20;8.95;;;3.58;;
53646;SDS011;39550;52.230;5.194;2023-09-19T10:45:47;7.22;;;3.30;;
53646;SDS011;39550;52.230;5.194;2023-09-19T10:48:15;7.22;;;2.80;;
53646;SDS011;39550;52.230;5.194;2023-09-19T10:53:20;6.68;;;3.22;;
53646;SDS011;39550;52.230;5.194;2023-09-19T10:55:56;11.23;;;3.40;;
53646;SDS011;39550;52.230;5.194;2023-09-19T10:58:28;7.78;;;3.67;;
53646;SDS011;39550;52.230;5.194;2023-09-19T11:01:02;6.60;;;3.10;;
53646;SDS011;39550;52.230;5.194;2023-09-19T11:03:30;6.90;;;3.13;;
53646;SDS011;39550;52.230;5.194;2023-09-19T11:14:28;8.05;;;3.10;;
53646;SDS011;39550;52.230;5.194;2023-09-19T11:30:39;6.07;;;3.00;;
53646;SDS011;39550;52.230;5.194;2023-09-19T11:33:18;9.32;;;3.03;;
53646;SDS011;39550;52.230;5.194;2023-09-19T11:35:59;9.23;;;3.00;;
53646;SDS011;39550;52.230;5.194;2023-09-19T11:43:49;8.23;;;3.33;;
53646;SDS011;39550;52.230;5.194;2023-09-19T11:46:25;6.95;;;2.70;;
53646;SDS011;39550;52.230;5.194;2023-09-19T11:48:53;6.00;;;2.78;;
53646;SDS011;39550;52.230;5.194;2023-09-19T11:51:22;7.45;;;3.08;;
53646;SDS011;39550;52.230;5.194;2023-09-19T11:53:52;9.30;;;3.22;;
53646;SDS011;39550;52.230;5.194;2023-09-19T11:56:20;8.75;;;3.03;;
53646;SDS011;39550;52.230;5.194;2023-09-19T11:58:49;7.60;;;3.00;;
53646;SDS011;39550;52.230;5.194;2023-09-19T12:03:52;8.68;;;3.25;;
53646;SDS011;39550;52.230;5.194;2023-09-19T12:06:20;6.00;;;2.83;;
53646;SDS011;39550;52.230;5.194;2023-09-19T12:08:50;7.93;;;3.28;;
53646;SDS011;39550;52.230;5.194;2023-09-19T12:11:19;6.80;;;3.45;;
53646;SDS011;39550;52.230;5.194;2023-09-19T12:13:48;5.18;;;2.70;;
53646;SDS011;39550;52.230;5.194;2023-09-19T12:16:17;8.77;;;2.60;;
53646;SDS011;39550;52.230;5.194;2023-09-19T12:18:48;6.50;;;2.70;;
53646;SDS011;39550;52.230;5.194;2023-09-19T12:23:42;6.28;;;2.80;;
53646;SDS011;39550;52.230;5.194;2023-09-19T12:26:08;7.30;;;2.83;;
53646;SDS011;39550;52.230;5.194;2023-09-19T12:28:40;7.10;;;2.70;;
53646;SDS011;39550;52.230;5.194;2023-09-19T12:31:10;8.63;;;2.90;;
53646;SDS011;39550;52.230;5.194;2023-09-19T12:33:36;9.40;;;3.13;;
53646;SDS011;39550;52.230;5.194;2023-09-19T12:36:23;7.20;;;2.80;;
53646;SDS011;39550;52.230;5.194;2023-09-19T12:38:59;10.77;;;3.03;;
53646;SDS011;39550;52.230;5.194;2023-09-19T12:41:25;5.40;;;2.40;;
53646;SDS011;39550;52.230;5.194;2023-09-19T12:43:52;7.80;;;2.78;;
53646;SDS011;39550;52.230;5.194;2023-09-19T12:46:22;5.72;;;2.58;;
53646;SDS011;39550;52.230;5.194;2023-09-19T12:49:14;5.07;;;2.45;;
53646;SDS011;39550;52.230;5.194;2023-09-19T12:51:47;8.90;;;3.10;;
53646;SDS011;39550;52.230;5.194;2023-09-19T12:54:13;6.43;;;3.00;;
53646;SDS011;39550;52.230;5.194;2023-09-19T12:56:42;5.68;;;2.92;;
53646;SDS011;39550;52.230;5.194;2023-09-19T12:59:11;9.95;;;2.88;;
53646;SDS011;39550;52.230;5.194;2023-09-19T13:01:39;8.23;;;2.53;;
53646;SDS011;39550;52.230;5.194;2023-09-19T13:04:18;8.18;;;2.60;;
53646;SDS011;39550;52.230;5.194;2023-09-19T13:06:45;9.07;;;2.92;;
53646;SDS011;39550;52.230;5.194;2023-09-19T13:09:14;4.60;;;2.30;;
53646;SDS011;39550;52.230;5.194;2023-09-19T13:11:41;5.53;;;2.40;;
53646;SDS011;39550;52.230;5.194;2023-09-19T13:14:19;6.32;;;2.67;;
53646;SDS011;39550;52.230;5.194;2023-09-19T13:19:42;6.53;;;2.47;;
53646;SDS011;39550;52.230;5.194;2023-09-19T13:25:01;7.95;;;4.13;;
53646;SDS011;39550;52.230;5.194;2023-09-19T13:27:29;5.72;;;2.95;;
53646;SDS011;39550;52.230;5.194;2023-09-19T13:29:54;5.78;;;2.72;;
53646;SDS011;39550;52.230;5.194;2023-09-19T13:32:19;5.78;;;2.55;;
53646;SDS011;39550;52.230;5.194;2023-09-19T13:34:45;7.38;;;3.45;;
53646;SDS011;39550;52.230;5.194;2023-09-19T13:37:11;5.63;;;2.40;;
53646;SDS011;39550;52.230;5.194;2023-09-19T13:39:38;5.70;;;2.85;;
53646;SDS011;39550;52.230;5.194;2023-09-19T13:42:12;7.03;;;2.70;;
53646;SDS011;39550;52.230;5.194;2023-09-19T13:44:38;7.45;;;3.00;;
53646;SDS011;39550;52.230;5.194;2023-09-19T13:47:04;8.23;;;2.70;;
53646;SDS011;39550;52.230;5.194;2023-09-19T13:49:34;6.13;;;2.30;;
53646;SDS011;39550;52.230;5.194;2023-09-19T13:52:01;5.03;;;2.35;;
53646;SDS011;39550;52.230;5.194;2023-09-19T13:54:29;4.97;;;2.40;;
53646;SDS011;39550;52.230;5.194;2023-09-19T13:56:54;6.57;;;2.50;;
53646;SDS011;39550;52.230;5.194;2023-09-19T13:59:20;5.28;;;2.72;;
53646;SDS011;39550;52.230;5.194;2023-09-19T14:01:51;4.40;;;2.20;;
53646;SDS011;39550;52.230;5.194;2023-09-19T14:04:19;6.07;;;2.38;;
53646;SDS011;39550;52.230;5.194;2023-09-19T14:06:45;3.80;;;1.92;;
53646;SDS011;39550;52.230;5.194;2023-09-19T14:09:11;5.47;;;2.50;;
53646;SDS011;39550;52.230;5.194;2023-09-19T14:11:38;5.03;;;2.47;;
53646;SDS011;39550;52.230;5.194;2023-09-19T14:14:04;6.30;;;2.38;;
53646;SDS011;39550;52.230;5.194;2023-09-19T14:16:30;6.90;;;2.20;;
53646;SDS011;39550;52.230;5.194;2023-09-19T14:18:56;4.50;;;2.28;;
53646;SDS011;39550;52.230;5.194;2023-09-19T14:21:23;5.78;;;2.08;;
53646;SDS011;39550;52.230;5.194;2023-09-19T14:23:50;9.80;;;2.60;;
53646;SDS011;39550;52.230;5.194;2023-09-19T14:26:15;5.50;;;2.55;;
53646;SDS011;39550;52.230;5.194;2023-09-19T14:28:41;4.63;;;2.63;;
53646;SDS011;39550;52.230;5.194;2023-09-19T14:31:07;6.18;;;2.33;;
53646;SDS011;39550;52.230;5.194;2023-09-19T14:33:34;7.95;;;2.50;;
53646;SDS011;39550;52.230;5.194;2023-09-19T14:36:06;4.95;;;2.70;;
53646;SDS011;39550;52.230;5.194;2023-09-19T14:38:34;5.85;;;2.70;;
53646;SDS011;39550;52.230;5.194;2023-09-19T14:41:04;5.68;;;2.80;;
53646;SDS011;39550;52.230;5.194;2023-09-19T14:43:31;5.43;;;2.38;;
53646;SDS011;39550;52.230;5.194;2023-09-19T14:45:57;10.45;;;3.08;;
53646;SDS011;39550;52.230;5.194;2023-09-19T14:48:29;5.68;;;2.63;;
53646;SDS011;39550;52.230;5.194;2023-09-19T14:50:55;8.52;;;2.88;;
53646;SDS011;39550;52.230;5.194;2023-09-19T14:53:27;8.30;;;2.67;;
53646;SDS011;39550;52.230;5.194;2023-09-19T14:55:52;8.68;;;3.53;;
53646;SDS011;39550;52.230;5.194;2023-09-19T14:58:20;11.05;;;3.28;;
53646;SDS011;39550;52.230;5.194;2023-09-19T15:00:46;5.90;;;3.10;;
53646;SDS011;39550;52.230;5.194;2023-09-19T15:03:11;6.25;;;3.03;;
53646;SDS011;39550;52.230;5.194;2023-09-19T15:05:38;6.32;;;2.90;;
53646;SDS011;39550;52.230;5.194;2023-09-19T15:08:04;6.57;;;2.65;;
53646;SDS011;39550;52.230;5.194;2023-09-19T15:10:30;8.07;;;3.13;;
53646;SDS011;39550;52.230;5.194;2023-09-19T15:12:56;7.60;;;2.65;;
53646;SDS011;39550;52.230;5.194;2023-09-19T15:15:22;5.13;;;2.85;;
53646;SDS011;39550;52.230;5.194;2023-09-19T15:17:47;6.65;;;3.28;;
53646;SDS011;39550;52.230;5.194;2023-09-19T15:20:13;6.78;;;2.92;;
53646;SDS011;39550;52.230;5.194;2023-09-19T15:22:39;6.75;;;2.60;;
53646;SDS011;39550;52.230;5.194;2023-09-19T15:25:04;6.82;;;3.10;;
53646;SDS011;39550;52.230;5.194;2023-09-19T15:27:31;8.05;;;2.80;;
53646;SDS011;39550;52.230;5.194;2023-09-19T15:29:58;6.30;;;2.85;;
53646;SDS011;39550;52.230;5.194;2023-09-19T15:32:25;6.72;;;2.72;;
53646;SDS011;39550;52.230;5.194;2023-09-19T15:34:51;5.35;;;2.80;;
53646;SDS011;39550;52.230;5.194;2023-09-19T15:37:17;8.13;;;3.28;;
53646;SDS011;39550;52.230;5.194;2023-09-19T15:39:42;6.53;;;3.13;;
53646;SDS011;39550;52.230;5.194;2023-09-19T15:42:10;6.65;;;3.00;;
53646;SDS011;39550;52.230;5.194;2023-09-19T15:44:35;7.63;;;2.80;;
53646;SDS011;39550;52.230;5.194;2023-09-19T15:47:02;6.53;;;2.90;;
53646;SDS011;39550;52.230;5.194;2023-09-19T15:49:28;7.47;;;2.92;;
53646;SDS011;39550;52.230;5.194;2023-09-19T15:51:53;7.63;;;2.90;;
53646;SDS011;39550;52.230;5.194;2023-09-19T15:54:20;6.95;;;2.88;;
53646;SDS011;39550;52.230;5.194;2023-09-19T15:56:45;7.93;;;2.78;;
53646;SDS011;39550;52.230;5.194;2023-09-19T15:59:16;6.57;;;2.97;;
53646;SDS011;39550;52.230;5.194;2023-09-19T16:01:42;7.15;;;2.97;;
53646;SDS011;39550;52.230;5.194;2023-09-19T16:04:09;7.30;;;3.25;;
53646;SDS011;39550;52.230;5.194;2023-09-19T16:06:35;8.57;;;3.35;;
53646;SDS011;39550;52.230;5.194;2023-09-19T16:09:01;5.38;;;3.05;;
53646;SDS011;39550;52.230;5.194;2023-09-19T16:11:28;8.15;;;3.00;;
53646;SDS011;39550;52.230;5.194;2023-09-19T16:13:56;6.75;;;2.90;;